Impacts TAF Board INFO
FOR SITUATIONAL AWARENESS. NOT TO BE USED FOR FLIGHT PLANNING PURPOSES.
IDs:

PANC - Anchorage Intl, AK, US

Issued at 2327 UTC 21 Aug 2017
Updated at 0144 UTC 22 Aug 2017
Potential Impact None Slight Moderate High
Time0053Z 22/02Z 22/03Z 22/04Z 22/05Z 22/06Z 22/07Z 22/08Z 22/09Z 22/10Z 22/11Z 22/12Z 22/13Z 22/14Z>>
Type OBS PRVL PRVL PRVL PRVL PRVL PRVL PRVL PRVL PRVL PRVL PRVL PRVL PRVL
VIS 10 >6 >6 >6 >6 >6 >6 >6 >6 >6 >6 >6 >6 >6
CIG 70 60 60 60 60 60 60 60 70 70 70 70 70 70
Cover OVC OVC OVC OVC OVC OVC OVC OVC OVC OVC OVC OVC OVC OVC
FltCat VFR VFR VFR VFR VFR VFR VFR VFR VFR VFR VFR VFR VFR VFR
WX -RA -SHRA -SHRA -SHRA -SHRA -SHRA -SHRA -SHRA -- -- -- -- -- --
WDir 30 140 140 140 140 140 140 140 VRB VRB VRB VRB VRB VRB
WSpd 3 6 6 6 6 6 6 6 3 3 3 3 3 3
WGst -- -- -- -- -- -- -- -- -- -- -- -- -- --

Raw TAF
PANC 212327Z 2200/2306 06006KT P6SM -RA FEW005 OVC070
  FM220200 14006KT P6SM -SHRA FEW010 SCT040 OVC060
  FM220900 VRB03KT P6SM BKN070 OVC090
  FM221800 32006KT P6SM FEW060 SCT100


Raw METAR
PANC 220053Z 03003KT 10SM -RA FEW006 BKN070 OVC085 13/12 A2965 RMK AO2 SLP041 P0001 T01330117
PANC 212353Z 00000KT 10SM -RA FEW006 BKN070 OVC085 13/12 A2965 RMK AO2 SLP040 P0006 60009 T01330117 10133 20100 53015
PANC 212253Z 14004KT 10SM -RA FEW006 BKN075 OVC090 12/11 A2963 RMK AO2 SLP035 P0002 T01220111

METAR Board
Radar Display
Forecast Discussion

FOR SITUATIONAL AWARENESS. NOT TO BE USED FOR FLIGHT PLANNING PURPOSES.

Page loaded:  01:44 UTC  |   06:44 PM Pacific  |   07:44 PM Mountain  |   08:44 PM Central  |   09:44 PM Eastern

 

ADVISORIES

FORECASTS

FORECASTS

OBSERVATIONS

USER TOOLS

ABOUT US